Terminal Aerodrome Forecast
Issued by NWS

Home | Current Version | Previous Version | Text Only | Print | Product List | Glossary On
Versions: 1 2 3 4 5 6 7 8 9 10 11 12 13 14 15 16 17 18 19 20 21 22
000
FTUS43 KDTX 180925 AAA
TAFPTK
TAF AMD
KPTK 180925Z 1809/1906 21010KT 3SM BR SCT020 BKN060
     FM181200 20005KT 3SM BR BKN007 OVC060
      TEMPO 1812/1815 2SM -DZ BR OVC007
     FM181900 23010KT 6SM BR OVC012
     FM190000 23008KT 6SM BR OVC012=

USA.gov is the U.S. government's official web portal to all federal, state and local government web resources and services.